Time;durP1;ratioP1;P1;durP2;ratioP2;P2;SDS_P1;SDS_P2;PMS_P1;PMS_P2;Temp;Humidity;BMP_temperature;BMP_pressure;BME280_temperature;BME280_humidity;BME280_pressure;Samples;Min_cycle;Max_cycle;Signal;HPM_P1;HPM_P2
2022/05/11 00:01:18;;;;;;;3.78;3.47;;;;;;;17.13;65.70;98547.38;4119122;28;20281;-52
2022/05/11 00:03:20;;;;;;;3.10;2.90;;;;;;;17.07;65.98;98548.53;4120954;28;20221;-54
2022/05/11 00:05:23;;;;;;;3.45;3.15;;;;;;;17.02;66.12;98540.25;4119590;28;20242;-52
2022/05/11 00:07:25;;;;;;;3.50;3.20;;;;;;;17.00;66.31;98537.78;4101170;28;20231;-54
2022/05/11 00:09:26;;;;;;;4.43;3.70;;;;;;;16.96;66.24;98537.84;4106091;28;20242;-53
2022/05/11 00:11:29;;;;;;;4.18;3.78;;;;;;;16.92;66.46;98535.66;4103727;28;20226;-53
2022/05/11 00:13:31;;;;;;;4.57;4.18;;;;;;;16.90;66.47;98542.59;4107007;28;20211;-52
2022/05/11 00:15:34;;;;;;;3.17;2.90;;;;;;;16.88;66.46;98544.81;4103988;28;20207;-53
2022/05/11 00:17:36;;;;;;;4.30;3.60;;;;;;;16.85;66.71;98539.88;4089696;28;20825;-53
2022/05/11 00:19:37;;;;;;;4.57;3.13;;;;;;;16.80;66.50;98537.16;4108386;28;20210;-55
2022/05/11 00:21:39;;;;;;;3.33;2.95;;;;;;;16.76;66.48;98536.06;4102681;28;20593;-52
2022/05/11 00:23:44;;;;;;;3.60;3.30;;;;;;;16.75;66.90;98533.63;4106908;28;20200;-54
2022/05/11 00:25:47;;;;;;;4.00;3.70;;;;;;;16.73;66.93;98538.59;4102753;28;20246;-52
2022/05/11 00:27:49;;;;;;;3.50;3.20;;;;;;;16.69;66.93;98541.09;4111286;28;20298;-53
2022/05/11 00:29:50;;;;;;;4.10;3.75;;;;;;;16.64;66.87;98538.38;4105543;28;20211;-53
2022/05/11 00:31:54;;;;;;;2.90;2.67;;;;;;;16.60;67.03;98539.25;4106250;28;20251;-54
2022/05/11 00:33:56;;;;;;;3.53;3.22;;;;;;;16.56;67.18;98535.44;4088290;29;20215;-52
2022/05/11 00:35:58;;;;;;;3.85;3.47;;;;;;;16.48;67.24;98531.34;4119385;28;20253;-52
2022/05/11 00:38:00;;;;;;;4.22;3.80;;;;;;;16.48;67.26;98534.09;4119745;28;20269;-54
2022/05/11 00:40:03;;;;;;;3.17;2.88;;;;;;;16.48;67.12;98534.09;4119026;28;20215;-54
2022/05/11 00:42:05;;;;;;;3.20;2.90;;;;;;;16.47;67.35;98537.97;4122220;28;20234;-52
2022/05/11 00:44:09;;;;;;;3.42;3.13;;;;;;;16.45;67.14;98529.16;4107575;28;20203;-54
2022/05/11 00:46:17;;;;;;;3.33;3.03;;;;;;;16.42;67.44;98529.72;4103485;28;20262;-55
2022/05/11 00:50:46;;;;;;;6.60;2.95;;;;;;;16.41;67.38;98530.84;4104373;28;20211;-53
2022/05/11 00:53:11;;;;;;;3.20;2.90;;;;;;;16.38;67.87;98525.91;4105787;28;20215;-52
2022/05/11 00:55:16;;;;;;;3.53;2.97;;;;;;;16.34;67.54;98519.25;4108531;28;20257;-53
2022/05/11 00:57:22;;;;;;;3.05;2.78;;;;;;;16.29;68.09;98524.00;4116714;28;20261;-54
2022/05/11 00:59:26;;;;;;;2.42;2.17;;;;;;;16.29;68.10;98522.03;4104209;28;20210;-53
2022/05/11 01:01:28;;;;;;;3.67;2.65;;;;;;;16.26;67.91;98519.88;4098441;28;20729;-55
2022/05/11 01:03:38;;;;;;;2.97;2.72;;;;;;;16.27;67.96;98520.69;4100586;28;20301;-53
2022/05/11 01:05:42;;;;;;;2.20;1.98;;;;;;;16.29;67.70;98519.28;4117283;28;20210;-54
2022/05/11 01:07:43;;;;;;;3.00;2.70;;;;;;;16.26;67.70;98514.34;4103469;28;20347;-54
2022/05/11 01:09:45;;;;;;;2.72;2.28;;;;;;;16.23;67.83;98509.38;4117551;28;20242;-54
2022/05/11 01:11:49;;;;;;;3.38;3.08;;;;;;;16.20;67.97;98515.47;4119353;28;20856;-53
2022/05/11 01:13:51;;;;;;;2.90;2.70;;;;;;;16.19;67.79;98513.84;4104152;28;20296;-53
2022/05/11 01:15:53;;;;;;;2.97;2.70;;;;;;;16.17;67.70;98516.03;4105408;28;20228;-54
2022/05/11 01:17:56;;;;;;;3.05;2.83;;;;;;;16.13;67.65;98509.47;4107870;28;20732;-54
2022/05/11 01:19:58;;;;;;;3.60;3.30;;;;;;;16.10;67.73;98512.78;4116718;28;20278;-54
2022/05/11 01:22:12;;;;;;;3.13;2.55;;;;;;;16.09;67.47;98507.56;4102660;28;20215;-53
2022/05/11 01:24:44;;;;;;;3.33;2.67;;;;;;;16.05;67.76;98518.34;4107990;28;20206;-55
2022/05/11 01:26:48;;;;;;;4.05;3.70;;;;;;;16.01;67.96;98506.22;4101722;28;20529;-54
2022/05/11 01:28:54;;;;;;;4.00;3.53;;;;;;;15.87;68.50;98505.19;4108186;28;20281;-54
2022/05/11 01:31:07;;;;;;;3.75;3.45;;;;;;;15.86;68.27;98514.59;4105629;28;20317;-54
2022/05/11 01:33:14;;;;;;;3.72;3.22;;;;;;;15.85;68.24;98507.41;4103994;28;20226;-53
2022/05/11 01:35:31;;;;;;;3.05;2.83;;;;;;;15.84;68.43;98497.47;4102007;28;20202;-53
2022/05/11 01:37:37;;;;;;;3.60;3.30;;;;;;;15.83;68.18;98504.09;4107098;28;20230;-53
2022/05/11 01:39:39;;;;;;;2.50;2.30;;;;;;;15.77;68.15;98498.91;4109162;28;20273;-54
2022/05/11 01:41:43;;;;;;;3.15;2.95;;;;;;;15.74;68.27;98493.94;4108038;28;20202;-53
2022/05/11 01:43:45;;;;;;;5.28;3.22;;;;;;;15.71;68.58;98495.31;4103296;28;20214;-53
2022/05/11 01:45:47;;;;;;;2.72;2.53;;;;;;;15.65;68.94;98502.00;4108634;28;20215;-53
2022/05/11 01:47:48;;;;;;;3.08;2.78;;;;;;;15.66;68.60;98498.13;4117494;28;20366;-53
2022/05/11 01:49:50;;;;;;;2.47;2.28;;;;;;;15.67;68.56;98508.06;4109628;28;20234;-54
2022/05/11 01:51:52;;;;;;;2.15;2.03;;;;;;;15.65;68.65;98490.97;4110483;28;20206;-53
2022/05/11 01:53:54;;;;;;;3.25;3.05;;;;;;;15.63;68.82;98490.41;4104638;28;20658;-55
2022/05/11 01:55:56;;;;;;;3.30;3.00;;;;;;;15.62;68.44;98494.28;4105423;28;20294;-54
2022/05/11 01:57:58;;;;;;;2.78;2.38;;;;;;;15.65;68.58;98493.72;4103696;28;20317;-55
2022/05/11 02:00:00;;;;;;;3.60;3.30;;;;;;;15.64;68.44;98494.00;4101946;28;20629;-53
2022/05/11 02:02:04;;;;;;;3.13;2.90;;;;;;;15.61;68.54;98498.16;4104949;28;20724;-56
2022/05/11 02:07:49;;;;;;;3.60;3.30;;;;;;;15.62;68.36;98493.47;4103898;28;20208;-54
2022/05/11 02:08:49;;;;;;;4.20;2.88;;;;;;;15.52;68.18;98494.34;4101604;28;20594;-55
2022/05/11 02:10:51;;;;;;;3.58;3.28;;;;;;;15.48;68.18;98498.75;4103939;28;20207;-53
2022/05/11 02:12:55;;;;;;;2.90;2.67;;;;;;;15.45;68.80;98496.56;4103314;28;20285;-54
2022/05/11 02:14:57;;;;;;;3.33;3.05;;;;;;;15.39;68.84;98492.19;4103390;28;20277;-54
2022/05/11 02:16:59;;;;;;;3.70;3.33;;;;;;;15.38;68.60;98495.22;4117898;28;20281;-53
2022/05/11 02:19:01;;;;;;;3.40;3.20;;;;;;;15.36;68.76;98491.91;4092387;28;20230;-55
2022/05/11 02:21:03;;;;;;;3.05;2.85;;;;;;;15.35;68.82;98502.09;4108273;28;20214;-55
2022/05/11 02:23:05;;;;;;;3.85;2.90;;;;;;;15.31;68.69;98498.22;4102189;28;20645;-55
2022/05/11 02:25:08;;;;;;;2.97;2.63;;;;;;;15.29;68.73;98503.19;4104040;28;20223;-55
2022/05/11 02:27:11;;;;;;;3.58;3.28;;;;;;;15.31;68.66;98495.47;4117823;28;20672;-54
2022/05/11 02:29:13;;;;;;;3.95;3.65;;;;;;;15.28;68.80;98496.03;4100565;28;20250;-54
2022/05/11 02:31:15;;;;;;;2.67;2.28;;;;;;;15.28;69.05;98501.56;4118681;28;20698;-53
2022/05/11 02:33:17;;;;;;;3.40;3.00;;;;;;;15.26;68.80;98498.25;4103464;28;22515;-54
2022/05/11 02:35:19;;;;;;;2.50;2.17;;;;;;;15.24;68.68;98508.72;4103278;28;20219;-53
2022/05/11 02:37:21;;;;;;;2.90;2.70;;;;;;;15.22;68.83;98499.91;4106174;28;20246;-55
2022/05/11 02:39:22;;;;;;;2.83;2.63;;;;;;;15.14;68.96;98494.97;4117559;28;20758;-54
2022/05/11 02:41:24;;;;;;;2.90;2.70;;;;;;;15.09;68.99;98492.22;4102140;28;20280;-55
2022/05/11 02:43:26;;;;;;;3.58;3.28;;;;;;;15.03;69.27;98487.81;4118248;28;20249;-54
2022/05/11 02:45:29;;;;;;;3.33;3.03;;;;;;;15.00;69.20;98496.66;4105406;28;20668;-53
2022/05/11 02:47:31;;;;;;;2.80;2.60;;;;;;;14.99;69.08;98495.03;4107328;28;20296;-53
2022/05/11 02:49:32;;;;;;;4.05;3.28;;;;;;;14.96;69.38;98497.50;4114878;28;20250;-53
2022/05/11 02:51:34;;;;;;;3.00;2.80;;;;;;;14.94;69.05;98506.03;4118779;28;20206;-54
2022/05/11 02:53:36;;;;;;;3.17;2.88;;;;;;;14.95;69.01;98491.16;4101662;28;20250;-53
2022/05/11 02:55:43;;;;;;;2.72;2.53;;;;;;;14.97;69.41;98496.41;4101921;28;20229;-55
2022/05/11 02:57:45;;;;;;;2.55;2.35;;;;;;;15.00;69.14;98482.03;4117204;28;20740;-53
2022/05/11 02:59:49;;;;;;;2.95;2.70;;;;;;;14.96;69.35;98490.03;4102463;28;20268;-55
2022/05/11 03:01:53;;;;;;;3.15;2.85;;;;;;;14.94;69.44;98495.03;4120234;28;20342;-53
2022/05/11 03:03:55;;;;;;;3.05;2.70;;;;;;;14.95;69.67;98490.31;4103677;28;20210;-53
2022/05/11 03:05:57;;;;;;;2.83;2.33;;;;;;;14.92;69.23;98488.97;4104752;28;20203;-54
2022/05/11 03:07:59;;;;;;;3.47;3.17;;;;;;;14.89;69.61;98485.94;4115928;28;21056;-53
2022/05/11 03:10:00;;;;;;;3.22;2.75;;;;;;;14.85;69.58;98482.09;4103387;28;20223;-55
2022/05/11 03:12:02;;;;;;;2.88;2.25;;;;;;;14.85;69.69;98480.16;4112997;28;20238;-55
2022/05/11 03:14:04;;;;;;;2.45;2.25;;;;;;;14.85;69.65;98480.16;4107856;28;20207;-54
2022/05/11 03:16:09;;;;;;;2.30;2.10;;;;;;;14.87;69.68;98486.22;4103874;28;20281;-53
2022/05/11 03:18:12;;;;;;;2.53;2.15;;;;;;;14.86;69.72;98484.56;4101393;28;20242;-54
2022/05/11 03:20:14;;;;;;;2.47;2.28;;;;;;;14.81;70.17;98476.31;4103918;28;20251;-53
2022/05/11 03:22:18;;;;;;;2.83;2.58;;;;;;;14.78;69.64;98470.53;4100045;28;20333;-55
2022/05/11 03:24:20;;;;;;;2.72;2.53;;;;;;;14.77;69.87;98466.94;4105074;28;20226;-55
2022/05/11 03:26:22;;;;;;;2.17;2.05;;;;;;;14.78;69.75;98473.28;4101713;28;20218;-53
2022/05/11 03:28:24;;;;;;;2.42;2.22;;;;;;;14.76;70.39;98470.78;4106210;28;20296;-54
2022/05/11 03:30:26;;;;;;;2.75;2.50;;;;;;;14.75;69.71;98474.66;4108807;28;20207;-54
2022/05/11 03:34:49;;;;;;;2.15;2.00;;;;;;;14.80;70.05;98474.66;4101695;28;20211;-55
2022/05/11 03:36:51;;;;;;;2.22;2.10;;;;;;;14.81;69.68;98473.56;4100389;28;20237;-53
2022/05/11 03:38:52;;;;;;;2.60;1.98;;;;;;;14.80;70.15;98466.41;4102670;28;20261;-54
2022/05/11 03:40:54;;;;;;;2.78;2.58;;;;;;;14.76;69.91;98467.22;4101661;28;20215;-54
2022/05/11 03:42:56;;;;;;;2.45;2.25;;;;;;;14.68;70.37;98467.78;4099666;28;20671;-53
2022/05/11 03:45:16;;;;;;;2.97;2.55;;;;;;;14.68;69.95;98473.28;4102001;28;20215;-54
2022/05/11 03:47:18;;;;;;;2.45;2.25;;;;;;;14.65;69.93;98477.44;4113024;28;20268;-55
2022/05/11 03:49:21;;;;;;;2.90;2.20;;;;;;;14.67;70.08;98477.13;4106197;28;20214;-54
2022/05/11 03:51:24;;;;;;;2.50;2.10;;;;;;;14.66;70.13;98470.81;4116617;28;20608;-55
2022/05/11 03:53:26;;;;;;;2.63;2.42;;;;;;;14.63;70.09;98460.34;4092428;28;20666;-53
2022/05/11 03:55:27;;;;;;;2.90;2.47;;;;;;;14.60;70.53;98471.94;4098773;28;20215;-55
2022/05/11 03:57:29;;;;;;;3.05;2.75;;;;;;;14.60;70.16;98474.69;4099648;28;20697;-54
2022/05/11 03:59:31;;;;;;;1.98;1.73;;;;;;;14.60;70.02;98463.66;4095351;28;20693;-53
2022/05/11 04:01:33;;;;;;;3.30;2.67;;;;;;;14.60;70.11;98460.06;4099121;28;20207;-54
2022/05/11 04:03:35;;;;;;;2.75;2.55;;;;;;;14.58;70.01;98457.59;4103085;28;20686;-53
2022/05/11 04:05:37;;;;;;;2.70;2.50;;;;;;;14.55;70.27;98458.16;4102086;28;20273;-55
2022/05/11 04:07:40;;;;;;;3.38;3.08;;;;;;;14.53;69.92;98465.88;4119029;28;20229;-54
2022/05/11 04:09:42;;;;;;;2.33;2.13;;;;;;;14.53;69.94;98465.03;4104847;28;20262;-53
2022/05/11 04:11:44;;;;;;;3.63;3.28;;;;;;;14.53;69.96;98459.53;4114228;28;20530;-53
2022/05/11 04:13:45;;;;;;;3.00;2.70;;;;;;;14.55;70.09;98465.56;4104113;28;20266;-54
2022/05/11 04:15:51;;;;;;;2.72;2.53;;;;;;;14.56;70.09;98459.81;4107703;28;20254;-53
2022/05/11 04:17:53;;;;;;;2.90;2.70;;;;;;;14.56;70.27;98465.31;4116325;28;20732;-53
2022/05/11 04:19:56;;;;;;;2.20;2.00;;;;;;;14.56;70.26;98468.06;4106261;28;20207;-55
2022/05/11 04:21:58;;;;;;;2.15;1.95;;;;;;;14.56;69.99;98462.56;4104443;28;20211;-53
2022/05/11 04:24:00;;;;;;;2.95;2.70;;;;;;;14.55;70.10;98457.31;4102777;28;20207;-55
2022/05/11 04:26:02;;;;;;;2.70;2.53;;;;;;;14.52;70.25;98458.72;4105881;28;20278;-55
2022/05/11 04:28:08;;;;;;;2.13;1.98;;;;;;;14.48;69.97;98457.63;4116066;28;20241;-54
2022/05/11 04:30:10;;;;;;;2.53;2.33;;;;;;;14.49;70.10;98464.78;4104437;28;20258;-53
2022/05/11 04:32:14;;;;;;;2.67;2.47;;;;;;;14.48;69.79;98454.03;4087681;28;20282;-54
2022/05/11 04:34:16;;;;;;;3.28;2.97;;;;;;;14.50;69.95;98463.66;4120968;28;20615;-53
2022/05/11 04:36:18;;;;;;;3.22;2.92;;;;;;;14.52;69.69;98458.72;4102593;28;20249;-55
2022/05/11 04:38:20;;;;;;;2.53;2.33;;;;;;;14.51;70.17;98462.56;4106019;28;20227;-54
2022/05/11 04:40:22;;;;;;;2.28;2.08;;;;;;;14.53;69.83;98463.13;4110907;28;20214;-54
2022/05/11 04:42:24;;;;;;;2.50;2.28;;;;;;;14.50;69.88;98466.41;4107076;28;20273;-53
2022/05/11 04:44:28;;;;;;;2.05;1.90;;;;;;;14.50;69.58;98466.41;4090362;28;20211;-53
2022/05/11 04:46:35;;;;;;;2.72;2.53;;;;;;;14.53;69.85;98470.53;4110125;28;20300;-55
2022/05/11 04:48:38;;;;;;;2.70;2.47;;;;;;;14.52;69.61;98458.72;4101339;28;20234;-53
2022/05/11 04:50:42;;;;;;;3.00;2.80;;;;;;;14.55;69.54;98462.81;4106754;28;20289;-54
2022/05/11 04:52:43;;;;;;;3.42;3.13;;;;;;;14.52;70.03;98453.22;4114637;28;20210;-53
2022/05/11 04:54:48;;;;;;;2.90;2.60;;;;;;;14.52;69.96;98467.00;4104708;28;20741;-54
2022/05/11 04:56:50;;;;;;;3.95;3.42;;;;;;;14.47;70.41;98469.72;4104044;28;20708;-55
2022/05/11 04:58:57;;;;;;;6.03;2.95;;;;;;;14.51;70.33;98462.56;4107369;28;20216;-54
2022/05/11 05:00:59;;;;;;;2.85;2.65;;;;;;;14.54;70.19;98461.19;4111609;28;20211;-53
2022/05/11 05:03:02;;;;;;;3.10;2.80;;;;;;;14.58;70.26;98465.03;4094505;28;20263;-53
2022/05/11 05:05:10;;;;;;;3.42;3.13;;;;;;;14.62;70.15;98464.22;4107397;28;20589;-54
2022/05/11 05:07:13;;;;;;;2.65;2.45;;;;;;;14.66;70.00;98465.31;4106497;28;20274;-53
2022/05/11 05:09:15;;;;;;;3.58;3.28;;;;;;;14.70;69.83;98466.41;4108565;28;20374;-53
2022/05/11 05:11:16;;;;;;;3.08;2.78;;;;;;;14.78;69.82;98467.78;4097837;29;20662;-53
2022/05/11 05:13:18;;;;;;;3.35;3.05;;;;;;;14.83;69.59;98471.34;4109905;28;20210;-53
2022/05/11 05:15:20;;;;;;;4.20;3.80;;;;;;;14.88;69.55;98473.25;4122284;28;20277;-53
2022/05/11 05:17:22;;;;;;;3.17;2.97;;;;;;;14.93;69.28;98471.31;4106941;28;20234;-54
2022/05/11 05:19:24;;;;;;;2.47;2.28;;;;;;;14.98;69.17;98468.56;4106044;28;20207;-53
2022/05/11 05:21:26;;;;;;;2.55;2.35;;;;;;;15.04;69.26;98472.94;4090138;28;20215;-56
2022/05/11 05:23:28;;;;;;;2.72;2.53;;;;;;;15.12;69.40;98468.78;4110373;28;20207;-54
2022/05/11 05:25:30;;;;;;;3.97;3.58;;;;;;;15.06;70.84;98470.75;4107005;28;20211;-54
2022/05/11 05:27:32;;;;;;;3.33;3.03;;;;;;;15.16;70.41;98476.22;4100726;28;20235;-54
2022/05/11 05:31:54;;;;;;;2.92;2.65;;;;;;;15.42;71.11;98475.06;4102025;28;20267;-54
2022/05/11 05:33:59;;;;;;;2.88;2.58;;;;;;;15.48;71.81;98473.94;4091652;28;20219;-54
2022/05/11 05:36:03;;;;;;;3.90;3.50;;;;;;;15.70;71.60;98477.13;4106355;28;20728;-54
2022/05/11 05:38:06;;;;;;;3.67;3.38;;;;;;;15.95;71.35;98481.69;4102585;28;20612;-53
2022/05/11 05:40:09;;;;;;;2.60;2.40;;;;;;;16.15;70.96;98476.06;4117070;28;20207;-53
2022/05/11 05:42:19;;;;;;;7.18;4.00;;;;;;;16.27;70.17;98474.56;4104766;28;20265;-54
2022/05/11 05:44:21;;;;;;;2.65;2.42;;;;;;;16.47;70.44;98482.72;4118176;28;20353;-54
2022/05/11 05:46:24;;;;;;;3.30;3.00;;;;;;;16.63;69.64;98481.47;4116008;28;20214;-53
2022/05/11 05:48:26;;;;;;;3.67;3.38;;;;;;;16.84;69.71;98485.69;4105184;28;20359;-53
2022/05/11 05:50:27;;;;;;;3.08;2.78;;;;;;;16.95;69.59;98480.91;4118953;28;20338;-54
2022/05/11 05:52:29;;;;;;;2.72;2.35;;;;;;;17.15;68.74;98473.22;4090510;28;20219;-53
2022/05/11 05:54:32;;;;;;;2.13;2.00;;;;;;;17.24;68.16;98469.50;4108066;28;20211;-56
2022/05/11 05:56:34;;;;;;;3.35;2.90;;;;;;;17.34;67.69;98479.63;4104285;28;20218;-55
2022/05/11 05:58:36;;;;;;;3.33;3.05;;;;;;;17.54;67.44;98471.13;4101195;28;20204;-53
2022/05/11 06:00:38;;;;;;;3.47;3.17;;;;;;;17.70;66.33;98465.09;4102777;28;20210;-53
2022/05/11 06:02:40;;;;;;;2.85;2.65;;;;;;;17.82;65.98;98478.50;4120479;28;20257;-52
2022/05/11 06:04:44;;;;;;;2.70;2.50;;;;;;;17.94;65.47;98471.44;4091246;28;20222;-55
2022/05/11 06:06:46;;;;;;;2.97;2.70;;;;;;;18.11;65.05;98470.91;4117817;28;20680;-54
2022/05/11 06:08:48;;;;;;;2.22;2.03;;;;;;;18.17;64.88;98475.22;4102812;28;20225;-53
2022/05/11 06:10:53;;;;;;;2.63;2.42;;;;;;;18.09;64.52;98473.13;4094795;29;20227;-54
2022/05/11 06:12:55;;;;;;;2.13;1.92;;;;;;;18.26;64.63;98467.91;4119341;28;20511;-54
2022/05/11 06:14:57;;;;;;;2.50;2.30;;;;;;;18.37;64.19;98475.78;4111965;28;20239;-52
2022/05/11 06:16:59;;;;;;;2.55;2.35;;;;;;;18.50;64.14;98471.41;4118418;28;20230;-55
2022/05/11 06:19:01;;;;;;;2.33;2.13;;;;;;;18.58;63.69;98476.28;4110131;28;20681;-54
2022/05/11 06:21:04;;;;;;;3.72;3.33;;;;;;;18.67;63.77;98471.69;4107812;28;20202;-55
2022/05/11 06:23:06;;;;;;;2.85;2.20;;;;;;;18.77;63.92;98475.09;4100328;28;20212;-52
2022/05/11 06:25:08;;;;;;;2.75;2.53;;;;;;;18.84;63.18;98463.63;4103756;28;20273;-55
2022/05/11 06:27:16;;;;;;;2.45;2.25;;;;;;;19.01;63.31;98469.41;4118657;28;20317;-56
2022/05/11 06:29:18;;;;;;;2.53;2.10;;;;;;;19.00;63.43;98470.53;4105142;28;20203;-52
2022/05/11 06:31:23;;;;;;;2.22;2.03;;;;;;;19.07;62.96;98474.56;4102871;28;20601;-54
2022/05/11 06:33:25;;;;;;;2.42;1.85;;;;;;;19.14;63.40;98468.59;4104896;28;20202;-52
2022/05/11 06:35:27;;;;;;;2.35;2.05;;;;;;;19.28;63.14;98472.25;4103562;28;20333;-52
2022/05/11 06:37:30;;;;;;;4.80;2.92;;;;;;;19.45;62.68;98470.50;4106328;28;20249;-52
2022/05/11 06:39:31;;;;;;;2.28;2.08;;;;;;;19.62;61.49;98467.09;4117304;28;20729;-52
2022/05/11 06:41:34;;;;;;;2.42;2.00;;;;;;;19.76;61.78;98465.13;4090798;28;20375;-54
2022/05/11 06:43:39;;;;;;;2.10;1.90;;;;;;;19.94;59.97;98466.97;4100595;28;20290;-52
2022/05/11 06:45:44;;;;;;;2.08;1.88;;;;;;;19.92;60.27;98474.81;4102541;28;20210;-52
2022/05/11 06:47:46;;;;;;;2.25;1.80;;;;;;;20.05;60.40;98468.41;4087971;29;20741;-51
2022/05/11 06:49:48;;;;;;;2.25;1.90;;;;;;;20.08;60.23;98460.28;4120123;28;20692;-52
2022/05/11 06:51:50;;;;;;;1.70;1.60;;;;;;;20.20;59.89;98466.13;4114890;28;20210;-51
2022/05/11 07:00:53;;;;;;;1.70;1.60;;;;;;;20.69;57.81;98462.41;4104158;28;20219;-53
2022/05/11 07:02:54;;;;;;;1.42;1.33;;;;;;;20.84;57.74;98464.81;4098619;28;20312;-52
2022/05/11 07:04:56;;;;;;;3.15;1.40;;;;;;;20.85;57.40;98461.72;4104932;28;20584;-52
2022/05/11 07:06:59;;;;;;;1.55;1.45;;;;;;;20.88;56.92;98460.28;4102986;28;20626;-54
2022/05/11 07:09:00;;;;;;;1.88;1.30;;;;;;;20.98;56.07;98468.38;4100617;28;21019;-53
2022/05/11 07:13:23;;;;;;;1.80;1.63;;;;;;;21.11;55.47;98465.50;4103548;28;20349;-52
2022/05/11 07:15:25;;;;;;;1.38;1.27;;;;;;;21.16;56.60;98453.41;4086260;28;20222;-53
2022/05/11 07:17:38;;;;;;;1.70;1.60;;;;;;;21.48;55.26;98453.06;4102923;28;20285;-51
2022/05/11 07:19:43;;;;;;;1.83;1.42;;;;;;;21.34;55.29;98452.34;4120267;28;20211;-52
2022/05/11 07:21:44;;;;;;;1.45;1.35;;;;;;;21.31;54.04;98450.22;4102707;28;20634;-52
2022/05/11 07:23:46;;;;;;;3.53;1.42;;;;;;;21.38;54.81;98447.78;4110353;28;20217;-52
2022/05/11 07:25:48;;;;;;;12.48;1.85;;;;;;;21.60;55.23;98450.47;4118182;28;20210;-51
2022/05/11 07:27:53;;;;;;;1.88;1.77;;;;;;;21.72;53.96;98450.72;4107630;28;20728;-51
2022/05/11 07:29:55;;;;;;;2.03;1.60;;;;;;;21.88;53.37;98447.16;4102932;28;20269;-53
2022/05/11 07:31:57;;;;;;;1.52;1.42;;;;;;;21.96;53.89;98451.09;4104134;28;20202;-52
2022/05/11 07:33:59;;;;;;;1.50;1.40;;;;;;;21.96;52.92;98443.56;4090460;28;20214;-53
2022/05/11 07:36:00;;;;;;;1.63;1.52;;;;;;;22.00;53.29;98439.00;4116911;28;20209;-52
2022/05/11 07:38:09;;;;;;;1.85;1.67;;;;;;;22.03;53.42;98448.66;4104230;28;20241;-51
2022/05/11 07:40:11;;;;;;;1.75;1.45;;;;;;;22.11;53.20;98447.84;4102965;28;20209;-51
2022/05/11 07:42:21;;;;;;;1.95;1.35;;;;;;;22.12;52.18;98441.13;4103311;28;20240;-51
2022/05/11 07:44:23;;;;;;;3.03;2.05;;;;;;;22.00;53.10;98438.16;4106386;28;20234;-51
2022/05/11 07:46:33;;;;;;;1.27;1.17;;;;;;;21.93;52.90;98432.25;4102047;28;20210;-51
2022/05/11 07:48:36;;;;;;;1.90;1.70;;;;;;;22.09;52.36;98436.19;4101811;28;20209;-52
2022/05/11 07:50:38;;;;;;;2.10;1.40;;;;;;;22.39;52.86;98438.03;4104094;28;20233;-52
2022/05/11 07:52:44;;;;;;;1.38;1.20;;;;;;;22.59;52.06;98440.19;4103373;28;20256;-53
2022/05/11 07:54:46;;;;;;;1.55;1.45;;;;;;;22.84;51.68;98433.75;4101222;28;20206;-53
2022/05/11 08:01:29;;;;;;;1.73;1.58;;;;;;;22.98;51.46;98431.56;4102288;28;22027;-51
2022/05/11 08:03:30;;;;;;;1.60;1.30;;;;;;;22.95;50.44;98426.66;4104931;28;20630;-52
2022/05/11 08:05:32;;;;;;;1.85;1.73;;;;;;;22.81;50.86;98423.22;4103341;28;20210;-51
2022/05/11 08:07:41;;;;;;;2.72;2.50;;;;;;;22.92;50.86;98430.09;4107139;28;20624;-54
2022/05/11 08:09:43;;;;;;;2.53;1.27;;;;;;;23.06;51.10;98427.94;4104993;28;20214;-54
2022/05/11 08:11:47;;;;;;;2.20;1.65;;;;;;;23.06;50.82;98427.94;4110227;28;20277;-50
2022/05/11 08:13:49;;;;;;;1.48;1.33;;;;;;;23.03;50.14;98423.84;4103964;28;20217;-51
2022/05/11 08:15:51;;;;;;;1.40;1.23;;;;;;;23.15;50.79;98425.94;4101855;28;20688;-50
2022/05/11 08:17:53;;;;;;;1.60;1.50;;;;;;;23.45;50.66;98424.88;4118401;28;20731;-52
2022/05/11 08:19:55;;;;;;;2.08;1.88;;;;;;;23.34;50.43;98427.22;4111010;28;20210;-52
2022/05/11 08:21:57;;;;;;;2.13;1.33;;;;;;;23.38;50.00;98424.56;4117324;28;20205;-52
2022/05/11 08:24:00;;;;;;;1.58;1.48;;;;;;;23.25;49.78;98423.63;4120106;28;20204;-52
2022/05/11 08:26:04;;;;;;;1.45;1.08;;;;;;;23.04;49.77;98424.66;4106270;28;20681;-53
2022/05/11 08:28:15;;;;;;;1.20;1.10;;;;;;;23.21;49.71;98430.22;4103082;28;20238;-50
2022/05/11 08:35:21;;;;;;;1.85;1.27;;;;;;;23.46;48.94;98420.91;4103676;28;20209;-54
2022/05/11 08:37:22;;;;;;;1.50;1.40;;;;;;;23.90;49.38;98421.19;4100524;28;20319;-54
2022/05/11 08:39:30;;;;;;;1.20;1.10;;;;;;;23.81;48.63;98417.59;4116952;28;21158;-55
2022/05/11 08:41:51;;;;;;;1.38;1.20;;;;;;;23.71;48.89;98417.16;4104217;28;20206;-55
2022/05/11 08:44:00;;;;;;;1.40;1.30;;;;;;;23.80;48.76;98415.97;4101792;28;20211;-54
2022/05/11 08:46:38;;;;;;;1.48;1.20;;;;;;;23.95;47.99;98423.78;4088848;28;20214;-51
2022/05/11 08:48:49;;;;;;;2.40;1.20;;;;;;;23.81;47.90;98418.41;4114989;28;20292;-51
2022/05/11 08:50:50;;;;;;;2.40;1.50;;;;;;;24.14;47.92;98421.34;4101580;28;20576;-52
2022/05/11 08:53:00;;;;;;;2.08;1.90;;;;;;;24.33;47.38;98416.91;4100438;28;20277;-52
2022/05/11 08:55:12;;;;;;;1.67;1.58;;;;;;;24.64;47.80;98419.31;4100822;28;20232;-54
2022/05/11 08:57:25;;;;;;;1.05;0.95;;;;;;;24.90;47.30;98415.09;4102993;28;20288;-51
2022/05/11 08:59:30;;;;;;;1.63;1.52;;;;;;;24.94;46.34;98407.63;4118448;28;20209;-51
2022/05/11 09:01:42;;;;;;;1.25;1.15;;;;;;;25.06;46.41;98404.06;4097120;28;20826;-51
2022/05/11 09:03:46;;;;;;;2.00;0.93;;;;;;;25.40;46.76;98404.47;4107382;28;20280;-51
2022/05/11 09:05:47;;;;;;;1.42;1.33;;;;;;;25.43;46.08;98403.78;4108733;28;20257;-51
2022/05/11 09:07:52;;;;;;;1.30;1.20;;;;;;;25.56;45.28;98401.78;4105083;28;20308;-51
2022/05/11 09:09:59;;;;;;;1.60;1.00;;;;;;;25.73;45.19;98396.75;4102378;28;20893;-51
2022/05/11 09:12:01;;;;;;;1.88;1.10;;;;;;;25.68;44.40;98393.38;4104779;28;20230;-50
2022/05/11 09:14:03;;;;;;;2.22;1.38;;;;;;;25.76;43.91;98384.88;4114559;28;20260;-52
2022/05/11 09:16:06;;;;;;;0.80;0.80;;;;;;;25.29;44.23;98392.09;4110831;28;20730;-52
2022/05/11 09:18:08;;;;;;;1.15;0.98;;;;;;;25.54;44.71;98388.13;4108447;28;20226;-51
2022/05/11 09:20:18;;;;;;;1.17;1.00;;;;;;;25.72;44.23;98395.13;4098976;28;20221;-51
2022/05/11 09:22:24;;;;;;;6.68;1.23;;;;;;;25.92;43.98;98388.59;4102255;28;20210;-52
2022/05/11 09:24:30;;;;;;;1.80;1.30;;;;;;;25.90;43.94;98395.72;4107761;28;20783;-51
2022/05/11 09:26:38;;;;;;;1.35;1.23;;;;;;;25.66;44.15;98396.53;4107087;28;20218;-51
2022/05/11 09:28:45;;;;;;;0.70;0.70;;;;;;;25.46;43.75;98389.06;4105413;28;20229;-51
2022/05/11 09:31:05;;;;;;;1.00;0.90;;;;;;;25.74;43.79;98375.97;4119156;28;23584;-51
2022/05/11 09:33:17;;;;;;;0.90;0.90;;;;;;;25.79;43.73;98384.16;4108798;28;20741;-51
2022/05/11 09:35:23;;;;;;;2.88;1.10;;;;;;;25.91;43.86;98381.38;4106763;28;20210;-52
2022/05/11 09:37:36;;;;;;;0.95;0.90;;;;;;;26.20;44.32;98388.69;4106808;28;20233;-51
2022/05/11 09:39:51;;;;;;;3.63;1.50;;;;;;;25.65;43.26;98380.09;4094785;28;20706;-53
2022/05/11 09:41:56;;;;;;;1.00;0.90;;;;;;;25.38;43.44;98376.00;4106780;28;20812;-51
2022/05/11 09:43:58;;;;;;;0.90;0.90;;;;;;;25.79;43.32;98381.34;4095276;29;20230;-52
2022/05/11 09:46:34;;;;;;;1.27;1.17;;;;;;;26.01;43.05;98380.91;4091735;28;20243;-52
2022/05/11 09:48:40;;;;;;;1.30;0.90;;;;;;;25.69;43.19;98378.19;4104204;28;20245;-54
2022/05/11 09:50:43;;;;;;;1.15;0.90;;;;;;;25.96;42.52;98383.09;4113923;28;20206;-51
2022/05/11 09:52:46;;;;;;;1.05;1.02;;;;;;;26.37;42.49;98377.97;4108240;28;20665;-52
2022/05/11 09:54:51;;;;;;;0.88;0.77;;;;;;;26.04;43.44;98368.94;4108121;28;20685;-52
2022/05/11 09:56:59;;;;;;;0.98;0.98;;;;;;;26.11;42.58;98368.34;4111139;28;20222;-53
2022/05/11 09:59:25;;;;;;;2.15;1.77;;;;;;;26.25;42.91;98375.19;4102338;28;20296;-54
2022/05/11 10:01:28;;;;;;;1.10;1.00;;;;;;;26.15;43.09;98364.50;4116921;28;20253;-54
2022/05/11 10:03:30;;;;;;;1.02;0.93;;;;;;;26.04;42.53;98368.13;4102204;28;20202;-52
2022/05/11 10:05:38;;;;;;;1.05;1.05;;;;;;;25.90;42.99;98362.91;4104475;28;20309;-54
2022/05/11 10:07:46;;;;;;;1.33;1.27;;;;;;;25.98;43.02;98359.13;4117586;28;20225;-53
2022/05/11 10:09:53;;;;;;;1.63;1.52;;;;;;;26.11;42.98;98362.72;4102846;28;20217;-55
2022/05/11 10:11:59;;;;;;;1.15;0.95;;;;;;;26.11;43.07;98357.13;4103964;28;20350;-54
2022/05/11 10:25:08;;;;;;;1.13;1.00;;;;;;;27.01;41.03;98353.34;4105732;28;20273;-54